»·PEaware :: N52LM KMHV-KFUL

N52LM :: KMHV-KFUL

FLIGHT INFORMATION

Flight Status: Arrived
Operator: Privately registered:
United States
More flights under this callsign
Pilot: Laura M. (2908)
Aircraft: EMBRAER PHENOM 300
(E55P)
More flights by this aircraft type
Origin: KMHV Mojave
United States
Destination: KFUL Fullerton Mun
United States
More flights between these airports :: More routes between these airports
Route: JERID5 JERID V197 PMD V201 BERRI V459 SLI
File this flight plan on PilotEdge
Remarks:
Altitude:
(Current/Filed)
9,000ft
Speed:
(Current/Filed)
300kts
Departed: 14-Sep-23 10:39 AM
Arrived: 14-Sep-23 11:15 AM
Distance/Time
Traveled:
72nm/0:35
Distance/Time
To Go:
Arrived

Flight Plot

Page will automatically refresh every two minutes.

Flight plan parsing failed; only flown route is shown


Map Options




Map Legend


Flown Route
Filed Route
Departure Airport
Arrival Airport
Navaid (VOR, NDB)
Fix

Horizontal Profiles

Position Reports

Time Latitude Longitude Heading Altitude Ground
Speed
14-Sep-23 10:14 35.056591 -118.150072 359 2744ft 0kts
14-Sep-23 10:15 35.056591 -118.150072 359 2744ft 0kts
14-Sep-23 10:16 35.056591 -118.150072 359 2744ft 0kts
14-Sep-23 10:17 35.056591 -118.150072 359 2744ft 0kts
14-Sep-23 10:18 35.056591 -118.150072 359 2744ft 0kts
14-Sep-23 10:19 35.056591 -118.150072 359 2744ft 0kts
14-Sep-23 10:20 35.056591 -118.150072 359 2744ft 0kts
14-Sep-23 10:21 35.056591 -118.150072 359 2744ft 0kts
14-Sep-23 10:22 35.056591 -118.150072 359 2744ft 0kts
14-Sep-23 10:23 35.056591 -118.150072 359 2744ft 0kts
14-Sep-23 10:24 35.056591 -118.150072 359 2744ft 0kts
14-Sep-23 10:25 35.056591 -118.150072 359 2744ft 0kts
14-Sep-23 10:26 35.056591 -118.150072 359 2744ft 0kts
14-Sep-23 10:27 35.056591 -118.150072 359 2744ft 0kts
14-Sep-23 10:28 35.056591 -118.150072 359 2744ft 0kts
14-Sep-23 10:29 35.056591 -118.150072 359 2744ft 0kts
14-Sep-23 10:30 35.056591 -118.150072 359 2744ft 0kts
14-Sep-23 10:31 35.057587 -118.149708 38 2745ft 4kts
14-Sep-23 10:32 35.057596 -118.147765 86 2741ft 9kts
14-Sep-23 10:33 35.057875 -118.142646 7 2732ft 10kts
14-Sep-23 10:34 35.058096 -118.142632 357 2732ft 0kts
14-Sep-23 10:35 35.058096 -118.142632 357 2732ft 0kts
14-Sep-23 10:36 35.058096 -118.142632 357 2732ft 0kts
14-Sep-23 10:37 35.059213 -118.142900 275 2735ft 0kts
14-Sep-23 10:38 35.059241 -118.166335 270 3685ft 171kts
14-Sep-23 10:39 35.033495 -118.216958 217 7367ft 224kts
14-Sep-23 10:40 34.982690 -118.266327 217 9335ft 249kts
14-Sep-23 10:41 34.927454 -118.322580 217 9394ft 265kts
14-Sep-23 10:42 34.864706 -118.362107 157 9424ft 262kts
14-Sep-23 10:43 34.812509 -118.299688 132 9405ft 269kts
14-Sep-23 10:44 34.761168 -118.232737 132 9395ft 271kts
14-Sep-23 10:45 34.709933 -118.165971 132 9389ft 271kts
14-Sep-23 10:46 34.658508 -118.099110 132 9394ft 270kts
14-Sep-23 10:47 34.593136 -118.083524 202 9416ft 278kts
14-Sep-23 10:48 34.522143 -118.121781 201 9385ft 280kts
14-Sep-23 10:49 34.450740 -118.159677 201 9393ft 280kts
14-Sep-23 10:50 34.379276 -118.197437 201 9378ft 281kts
14-Sep-23 10:51 34.307682 -118.235274 201 9352ft 281kts
14-Sep-23 10:52 34.235844 -118.273155 201 9340ft 282kts
14-Sep-23 10:53 34.163849 -118.274171 154 9340ft 273kts
14-Sep-23 10:54 34.095071 -118.234335 153 8919ft 277kts
14-Sep-23 10:55 34.028577 -118.195932 153 7248ft 251kts
14-Sep-23 10:56 33.966935 -118.176275 191 7218ft 228kts
14-Sep-23 10:57 33.907830 -118.193302 191 7062ft 219kts
14-Sep-23 10:58 33.851071 -118.209311 191 4551ft 213kts
14-Sep-23 10:59 33.819893 -118.174351 91 3078ft 166kts
14-Sep-23 11:00 33.818116 -118.114115 91 3093ft 196kts
14-Sep-23 11:01 33.816443 -118.047115 91 3077ft 203kts
14-Sep-23 11:02 33.814691 -117.982309 91 3076ft 190kts
14-Sep-23 11:03 33.820756 -117.921003 79 3078ft 183kts
14-Sep-23 11:04 33.829461 -117.861389 79 3092ft 182kts
14-Sep-23 11:05 33.838178 -117.801938 79 3095ft 181kts
14-Sep-23 11:06 33.846936 -117.742081 79 3103ft 183kts
14-Sep-23 11:07 33.871479 -117.699430 343 3118ft 176kts
14-Sep-23 11:08 33.898756 -117.740209 286 3118ft 154kts
14-Sep-23 11:09 33.906927 -117.782709 275 3091ft 115kts
14-Sep-23 11:10 33.902071 -117.822820 256 2901ft 133kts
14-Sep-23 11:11 33.894057 -117.865246 261 2144ft 128kts
14-Sep-23 11:12 33.885788 -117.905431 255 1898ft 138kts
14-Sep-23 11:13 33.878075 -117.948512 256 627ft 114kts
14-Sep-23 11:14 33.871583 -117.982146 254 89ft 33kts
14-Sep-23 11:15 33.871026 -117.983264 136 89ft 0kts
14-Sep-23 11:16 33.871107 -117.981510 141 90ft 11kts
14-Sep-23 11:17 33.870596 -117.981330 93 90ft 0kts
14-Sep-23 11:18 33.870596 -117.981330 93 90ft 0kts

Navigation Log

Ident Type
Flight plan parsing failed, navigation log unavailable